createdAt,value
2023-02-11T00:00:21.988Z,12.27
2023-02-11T00:02:48.808Z,15.13
2023-02-11T00:05:16.088Z,11.48
2023-02-11T00:07:42.889Z,18.58
2023-02-11T00:10:09.880Z,17.33
2023-02-11T00:12:37.533Z,18.92
2023-02-11T00:15:05.722Z,17.13
2023-02-11T00:17:33.165Z,18.50
2023-02-11T00:19:59.961Z,20.27
2023-02-11T00:22:26.745Z,28.00
2023-02-11T00:24:54.049Z,20.55
2023-02-11T00:27:20.803Z,20.33
2023-02-11T00:29:47.572Z,26.92
2023-02-11T00:32:14.516Z,18.45
2023-02-11T00:34:41.380Z,14.38
2023-02-11T00:37:08.187Z,15.82
2023-02-11T00:39:34.962Z,17.83
2023-02-11T00:42:03.571Z,23.65
2023-02-11T00:44:30.360Z,10.93
2023-02-11T00:46:57.153Z,15.88
2023-02-11T00:49:25.165Z,15.82
2023-02-11T00:51:51.940Z,22.42
2023-02-11T00:54:20.262Z,19.35
2023-02-11T00:56:47.023Z,15.32
2023-02-11T00:59:13.801Z,14.52
2023-02-11T01:01:44.114Z,19.63
2023-02-11T01:04:10.979Z,11.55
2023-02-11T01:06:37.741Z,11.80
2023-02-11T01:09:05.680Z,16.13
2023-02-11T01:11:35.281Z,18.17
2023-02-11T01:14:02.392Z,14.82
2023-02-11T01:16:29.141Z,17.63
2023-02-11T01:18:56.009Z,22.67
2023-02-11T01:21:22.973Z,10.15
2023-02-11T01:23:51.193Z,14.27
2023-02-11T01:26:18.017Z,16.73
2023-02-11T01:28:44.948Z,20.48
2023-02-11T01:31:11.880Z,19.10
2023-02-11T01:33:38.748Z,15.40
2023-02-11T01:36:07.391Z,17.17
2023-02-11T01:38:34.810Z,13.93
2023-02-11T01:41:07.878Z,20.55
2023-02-11T01:43:39.254Z,13.18
2023-02-11T01:46:35.009Z,18.38
2023-02-11T01:49:10.709Z,18.35
2023-02-11T01:51:53.633Z,13.75
2023-02-11T01:54:42.602Z,14.38
2023-02-11T01:57:22.017Z,17.08
2023-02-11T01:59:54.600Z,12.85
2023-02-11T02:02:27.034Z,15.32
2023-02-11T02:05:02.147Z,13.00
2023-02-11T02:08:00.221Z,15.32
2023-02-11T02:10:28.806Z,16.83
2023-02-11T02:12:55.778Z,15.52
2023-02-11T02:15:29.335Z,15.85
2023-02-11T02:18:07.639Z,18.67
2023-02-11T02:20:56.343Z,31.83
2023-02-11T02:23:37.330Z,13.25
2023-02-11T02:26:52.345Z,20.08
2023-02-11T02:29:43.658Z,13.25
2023-02-11T02:32:22.615Z,15.15
2023-02-11T02:34:49.314Z,15.63
2023-02-11T02:37:24.356Z,17.10
2023-02-11T02:39:51.134Z,19.75
2023-02-11T02:42:19.703Z,20.80
2023-02-11T02:44:50.931Z,20.05
2023-02-11T02:47:17.812Z,14.05
2023-02-11T02:49:44.553Z,16.50
2023-02-11T02:52:54.682Z,15.82
2023-02-11T02:55:35.430Z,16.80
2023-02-11T02:58:23.823Z,17.45
2023-02-11T03:01:11.956Z,15.05
2023-02-11T03:03:50.762Z,18.45
2023-02-11T03:06:30.240Z,18.58
2023-02-11T03:09:10.307Z,26.35
2023-02-11T03:11:39.122Z,18.92
2023-02-11T03:14:10.311Z,20.17
2023-02-11T03:16:39.289Z,21.48
2023-02-11T03:19:14.204Z,16.67
2023-02-11T03:21:43.523Z,14.88
2023-02-11T03:24:19.318Z,17.48
2023-02-11T03:26:51.111Z,16.98
2023-02-11T03:29:36.129Z,19.20
2023-02-11T03:32:17.246Z,23.92
2023-02-11T03:34:59.956Z,23.75
2023-02-11T03:37:35.961Z,15.65
2023-02-11T03:40:23.530Z,18.25
2023-02-11T03:43:04.385Z,21.63
2023-02-11T03:45:31.509Z,16.83
2023-02-11T03:48:11.403Z,15.23
2023-02-11T03:50:39.982Z,21.42
2023-02-11T03:53:08.691Z,17.33
2023-02-11T03:55:39.719Z,19.73
2023-02-11T03:58:07.155Z,22.92
2023-02-11T04:03:04.423Z,17.10
2023-02-11T04:05:31.812Z,19.42
2023-02-11T04:07:58.635Z,17.92
2023-02-11T04:10:25.831Z,22.00
2023-02-11T04:12:52.619Z,16.80
2023-02-11T04:15:19.891Z,13.65
2023-02-11T04:17:46.698Z,25.17
2023-02-11T04:20:13.587Z,21.17
2023-02-11T04:22:40.625Z,18.13
2023-02-11T04:25:08.407Z,16.52
2023-02-11T04:27:35.866Z,25.65
2023-02-11T04:32:29.379Z,16.77
2023-02-11T04:34:56.178Z,15.35
2023-02-11T04:37:23.007Z,23.33
2023-02-11T04:39:49.786Z,19.67
2023-02-11T04:42:16.623Z,13.20
2023-02-11T04:44:43.386Z,15.55
2023-02-11T04:47:12.548Z,23.70
2023-02-11T04:49:39.429Z,17.35
2023-02-11T04:52:06.303Z,13.13
2023-02-11T04:54:33.135Z,29.95
2023-02-11T04:56:59.897Z,21.35
2023-02-11T04:59:26.703Z,19.13
2023-02-11T05:01:53.490Z,19.60
2023-02-11T05:04:20.425Z,21.48
2023-02-11T05:06:47.334Z,19.77
2023-02-11T05:09:14.810Z,15.18
2023-02-11T05:14:08.358Z,18.80
2023-02-11T05:16:35.311Z,13.75
2023-02-11T05:19:02.110Z,22.77
2023-02-11T05:21:28.956Z,17.42
2023-02-11T05:23:55.780Z,25.45
2023-02-11T05:26:22.579Z,20.27
2023-02-11T05:28:49.336Z,23.15
2023-02-11T05:31:16.741Z,22.70
2023-02-11T05:33:43.694Z,29.27
2023-02-11T05:36:13.324Z,22.65
2023-02-11T05:38:40.848Z,28.77
2023-02-11T05:43:37.407Z,18.73
2023-02-11T05:46:05.284Z,22.15
2023-02-11T05:48:32.853Z,21.52
2023-02-11T05:53:26.411Z,29.92
2023-02-11T05:55:53.387Z,24.15
2023-02-11T05:58:20.265Z,18.35
2023-02-11T06:00:47.015Z,27.75
2023-02-11T06:03:13.838Z,21.50
2023-02-11T06:05:42.140Z,25.75
2023-02-11T06:08:08.922Z,30.40
2023-02-11T06:10:35.696Z,22.50
2023-02-11T06:13:02.590Z,28.38
2023-02-11T06:15:29.466Z,13.20
2023-02-11T06:17:56.591Z,21.40
2023-02-11T06:20:23.368Z,25.80
2023-02-11T06:22:50.285Z,24.67
2023-02-11T06:25:17.300Z,20.00
2023-02-11T06:27:44.055Z,30.80
2023-02-11T06:30:11.785Z,18.52
2023-02-11T06:32:44.575Z,18.77
2023-02-11T06:35:13.348Z,28.15
2023-02-11T06:37:41.301Z,25.05
2023-02-11T06:40:08.674Z,27.17
2023-02-11T06:42:36.125Z,25.25
2023-02-11T06:47:32.619Z,31.25
2023-02-11T06:49:59.390Z,29.35
2023-02-11T06:52:26.220Z,16.65
2023-02-11T06:54:53.012Z,23.25
2023-02-11T06:57:19.849Z,30.83
2023-02-11T06:59:46.883Z,20.23
2023-02-11T07:02:13.746Z,32.88
2023-02-11T07:04:40.558Z,35.33
2023-02-11T07:07:07.564Z,32.35
2023-02-11T07:09:34.393Z,25.88
2023-02-11T07:12:01.314Z,29.20
2023-02-11T07:14:28.253Z,30.58
2023-02-11T07:16:55.002Z,29.00
2023-02-11T07:19:21.788Z,30.42
2023-02-11T07:21:48.817Z,36.35
2023-02-11T07:24:15.923Z,28.42
2023-02-11T07:26:42.737Z,30.13
2023-02-11T07:29:09.531Z,29.13
2023-02-11T07:31:36.441Z,25.73
2023-02-11T07:34:03.804Z,37.95
2023-02-11T07:36:31.938Z,35.45
2023-02-11T07:39:00.043Z,30.83
2023-02-11T07:41:27.607Z,34.38
2023-02-11T07:46:23.921Z,46.00
2023-02-11T07:48:51.288Z,36.92
2023-02-11T07:51:21.421Z,43.63
2023-02-11T07:53:49.214Z,31.23
2023-02-11T07:56:18.230Z,40.83
2023-02-11T07:58:45.454Z,40.50
2023-02-11T08:01:22.490Z,40.17
2023-02-11T08:03:49.462Z,33.35
2023-02-11T08:06:20.137Z,31.83
2023-02-11T08:08:47.562Z,40.50
2023-02-11T08:11:17.310Z,37.85
2023-02-11T08:13:44.926Z,42.47
2023-02-11T08:16:41.306Z,45.25
2023-02-11T08:19:12.096Z,37.03
2023-02-11T08:21:39.471Z,35.65
2023-02-11T08:24:07.191Z,41.45
2023-02-11T08:26:34.865Z,40.75
2023-02-11T08:29:05.671Z,37.72
2023-02-11T08:31:38.586Z,41.90
2023-02-11T08:34:05.970Z,38.67
2023-02-11T08:36:35.731Z,45.63
2023-02-11T08:39:18.246Z,49.30
2023-02-11T08:41:49.012Z,49.33
2023-02-11T08:44:17.034Z,39.38
2023-02-11T08:46:43.860Z,47.05
2023-02-11T08:49:10.709Z,37.67
2023-02-11T08:51:37.614Z,40.53
2023-02-11T08:54:04.595Z,43.75
2023-02-11T08:56:33.059Z,47.92
2023-02-11T08:58:59.816Z,40.15
2023-02-11T09:01:29.160Z,38.13
2023-02-11T09:03:57.257Z,39.38
2023-02-11T09:06:25.403Z,36.35
2023-02-11T09:08:54.819Z,40.55
2023-02-11T09:11:27.757Z,38.25
2023-02-11T09:13:54.907Z,39.70
2023-02-11T09:16:27.382Z,52.40
2023-02-11T09:18:56.357Z,47.15
2023-02-11T09:21:23.342Z,48.30
2023-02-11T09:23:50.289Z,53.28
2023-02-11T09:26:23.075Z,47.65
2023-02-11T09:28:49.940Z,42.17
2023-02-11T09:31:19.435Z,41.53
2023-02-11T09:33:49.372Z,44.63
2023-02-11T09:36:19.364Z,44.22
2023-02-11T09:38:46.935Z,40.63
2023-02-11T09:43:56.054Z,47.00
2023-02-11T09:46:24.419Z,43.95
2023-02-11T09:48:54.929Z,56.08
2023-02-11T09:51:47.170Z,38.88
2023-02-11T09:54:26.600Z,37.42
2023-02-11T09:56:53.330Z,46.47
2023-02-11T09:59:20.593Z,43.90
2023-02-11T10:01:53.244Z,36.40
2023-02-11T10:04:32.249Z,47.88
2023-02-11T10:07:26.259Z,38.72
2023-02-11T10:10:04.172Z,37.10
2023-02-11T10:12:45.625Z,40.65
2023-02-11T10:15:37.646Z,45.15
2023-02-11T10:18:43.086Z,44.63
2023-02-11T10:21:41.354Z,47.17
2023-02-11T10:24:12.529Z,48.13
2023-02-11T10:26:40.570Z,32.50
2023-02-11T10:29:30.283Z,33.92
2023-02-11T10:31:58.710Z,36.78
2023-02-11T10:34:25.552Z,39.60
2023-02-11T10:36:52.301Z,39.08
2023-02-11T10:39:22.163Z,42.83
2023-02-11T10:41:59.106Z,51.13
2023-02-11T10:44:33.342Z,40.40
2023-02-11T10:47:05.302Z,39.03
2023-02-11T10:49:41.991Z,36.45
2023-02-11T10:52:17.811Z,44.00
2023-02-11T10:55:16.520Z,49.90
2023-02-11T10:57:52.438Z,39.50
2023-02-11T11:00:39.005Z,39.90
2023-02-11T11:03:19.412Z,31.25
2023-02-11T11:05:59.803Z,48.30
2023-02-11T11:08:48.192Z,41.60
2023-02-11T11:11:23.938Z,43.60
2023-02-11T11:13:53.455Z,42.83
2023-02-11T11:16:29.347Z,39.17
2023-02-11T11:19:08.335Z,48.17
2023-02-11T11:21:52.766Z,44.72
2023-02-11T11:24:21.556Z,41.85
2023-02-11T11:26:51.346Z,44.53
2023-02-11T11:29:32.540Z,52.78
2023-02-11T11:32:04.630Z,50.35
2023-02-11T11:34:43.041Z,50.55
2023-02-11T11:37:19.960Z,42.25
2023-02-11T11:39:58.287Z,40.60
2023-02-11T11:42:27.156Z,42.40
2023-02-11T11:45:23.042Z,43.47
2023-02-11T11:47:58.372Z,51.83
2023-02-11T11:50:44.093Z,47.38
2023-02-11T11:53:20.710Z,37.50
2023-02-11T11:55:59.912Z,45.20
2023-02-11T11:58:29.189Z,41.60
2023-02-11T12:01:10.840Z,42.55
2023-02-11T12:04:02.775Z,50.40
2023-02-11T12:07:00.334Z,45.00
2023-02-11T12:09:54.970Z,45.70
2023-02-11T12:12:47.078Z,39.65
2023-02-11T12:15:22.304Z,46.95
2023-02-11T12:18:00.998Z,51.40
2023-02-11T12:20:53.904Z,42.70
2023-02-11T12:23:46.356Z,44.00
2023-02-11T12:26:18.241Z,49.85
2023-02-11T12:29:20.230Z,41.70
2023-02-11T12:32:36.757Z,45.78
2023-02-11T12:38:24.609Z,47.85
2023-02-11T12:41:13.191Z,39.08
2023-02-11T12:43:42.273Z,48.92
2023-02-11T12:46:24.639Z,48.45
2023-02-11T12:49:01.632Z,51.72
2023-02-11T12:51:49.415Z,62.00
2023-02-11T12:54:25.711Z,55.00
2023-02-11T12:57:12.792Z,42.30
2023-02-11T13:00:12.717Z,51.85
2023-02-11T13:02:56.050Z,46.60
2023-02-11T13:05:43.116Z,38.08
2023-02-11T13:11:02.849Z,44.97
2023-02-11T13:13:38.559Z,47.30
2023-02-11T13:16:13.642Z,48.15
2023-02-11T13:18:49.433Z,48.85
2023-02-11T13:21:16.379Z,51.60
2023-02-11T13:24:13.037Z,36.55
2023-02-11T13:26:40.477Z,50.78
2023-02-11T13:29:10.012Z,45.95
2023-02-11T13:31:36.925Z,41.47
2023-02-11T13:34:03.943Z,52.00
2023-02-11T13:36:33.233Z,43.30
2023-02-11T13:39:03.700Z,48.60
2023-02-11T13:41:52.525Z,63.90
2023-02-11T13:44:24.981Z,46.60
2023-02-11T13:47:02.107Z,43.28
2023-02-11T13:49:41.946Z,45.30
2023-02-11T13:52:17.887Z,44.13
2023-02-11T13:54:50.685Z,48.60
2023-02-11T13:57:20.213Z,53.95
2023-02-11T13:59:55.813Z,67.15
2023-02-11T14:02:43.502Z,59.03
2023-02-11T14:05:40.500Z,50.50
2023-02-11T14:10:55.788Z,37.28
2023-02-11T14:13:27.001Z,51.22
2023-02-11T14:16:20.379Z,48.13
2023-02-11T14:18:52.272Z,57.00
2023-02-11T14:21:27.194Z,41.67
2023-02-11T14:24:14.458Z,39.33
2023-02-11T14:26:53.850Z,45.83
2023-02-11T14:29:38.840Z,46.00
2023-02-11T14:32:17.190Z,54.15
2023-02-11T14:34:53.505Z,45.60
2023-02-11T14:37:50.344Z,35.75
2023-02-11T14:40:49.036Z,47.92
2023-02-11T14:43:24.105Z,50.85
2023-02-11T14:45:55.663Z,50.10
2023-02-11T14:48:29.916Z,39.20
2023-02-11T14:51:08.451Z,46.25
2023-02-11T14:53:36.490Z,49.70
2023-02-11T14:56:03.766Z,57.65
2023-02-11T14:58:32.642Z,51.70
2023-02-11T15:01:14.610Z,46.95
2023-02-11T15:03:49.100Z,48.25
2023-02-11T15:06:23.119Z,39.95
2023-02-11T15:08:58.154Z,48.53
2023-02-11T15:11:26.076Z,45.70
2023-02-11T15:13:55.361Z,42.30
2023-02-11T15:16:24.441Z,41.33
2023-02-11T15:18:54.957Z,39.67
2023-02-11T15:21:29.700Z,38.67
2023-02-11T15:24:06.364Z,39.22
2023-02-11T15:26:33.760Z,49.47
2023-02-11T15:29:00.683Z,40.65
2023-02-11T15:31:28.825Z,38.20
2023-02-11T15:33:55.847Z,39.17
2023-02-11T15:36:28.640Z,38.20
2023-02-11T15:39:17.311Z,36.33
2023-02-11T15:41:44.553Z,31.05
2023-02-11T15:44:28.666Z,31.83
2023-02-11T15:46:55.697Z,38.55
2023-02-11T15:49:24.389Z,37.47
2023-02-11T15:51:53.096Z,42.03
2023-02-11T15:54:24.145Z,41.47
2023-02-11T15:56:55.304Z,33.03
2023-02-11T15:59:38.795Z,34.38
2023-02-11T16:02:13.813Z,25.38
2023-02-11T16:04:54.141Z,33.95
2023-02-11T16:07:42.704Z,33.95
2023-02-11T16:10:20.644Z,35.38
2023-02-11T16:13:10.424Z,32.20
2023-02-11T16:15:42.878Z,31.10
2023-02-11T16:18:38.582Z,33.45
2023-02-11T16:21:13.993Z,26.77
2023-02-11T16:23:44.211Z,25.90
2023-02-11T16:26:24.986Z,31.25
2023-02-11T16:28:52.130Z,31.38
2023-02-11T16:31:19.409Z,40.10
2023-02-11T16:33:46.341Z,28.92
2023-02-11T16:36:16.845Z,38.60
2023-02-11T16:38:43.624Z,27.17
2023-02-11T16:41:13.240Z,31.40
2023-02-11T16:43:40.374Z,26.50
2023-02-11T16:46:08.685Z,27.27
2023-02-11T16:48:35.460Z,25.95
2023-02-11T16:51:03.396Z,23.98
2023-02-11T16:55:56.989Z,47.03
2023-02-11T16:58:23.780Z,36.45
2023-02-11T17:00:51.379Z,23.92
2023-02-11T17:03:23.208Z,31.40
2023-02-11T17:05:55.616Z,35.22
2023-02-11T17:08:23.562Z,31.30
2023-02-11T17:13:17.688Z,30.63
2023-02-11T17:15:44.492Z,36.45
2023-02-11T17:18:14.347Z,26.05
2023-02-11T17:20:41.964Z,46.08
2023-02-11T17:23:08.981Z,34.00
2023-02-11T17:25:37.307Z,34.22
2023-02-11T17:28:09.005Z,31.75
2023-02-11T17:30:36.023Z,30.75
2023-02-11T17:33:02.898Z,33.25
2023-02-11T17:35:29.702Z,39.25
2023-02-11T17:37:58.150Z,38.15
2023-02-11T17:40:24.912Z,26.95
2023-02-11T17:42:51.687Z,24.42
2023-02-11T17:45:21.097Z,29.48
2023-02-11T17:47:49.388Z,31.75
2023-02-11T17:50:16.320Z,27.42
2023-02-11T17:52:43.220Z,27.17
2023-02-11T17:55:10.019Z,26.45
2023-02-11T17:57:36.991Z,30.10
2023-02-11T18:00:05.919Z,38.10
2023-02-11T18:02:39.677Z,41.60
2023-02-11T18:05:06.939Z,32.58
2023-02-11T18:07:33.790Z,36.90
2023-02-11T18:10:00.658Z,35.67
2023-02-11T18:12:27.584Z,37.45
2023-02-11T18:14:57.569Z,34.47
2023-02-11T18:17:25.350Z,33.67
2023-02-11T18:19:56.031Z,34.47
2023-02-11T18:22:23.635Z,35.17
2023-02-11T18:24:54.212Z,37.88
2023-02-11T18:27:23.961Z,28.30
2023-02-11T18:29:50.793Z,37.75
2023-02-11T18:32:17.586Z,27.02
2023-02-11T18:34:44.425Z,30.02
2023-02-11T18:37:13.196Z,41.38
2023-02-11T18:39:40.515Z,34.55
2023-02-11T18:42:07.391Z,38.67
2023-02-11T18:44:34.175Z,36.47
2023-02-11T18:47:01.075Z,48.10
2023-02-11T18:49:27.996Z,40.05
2023-02-11T18:51:54.963Z,45.55
2023-02-11T18:54:21.835Z,29.35
2023-02-11T18:56:48.628Z,44.55
2023-02-11T18:59:15.542Z,34.90
2023-02-11T19:01:46.583Z,43.90
2023-02-11T19:04:18.802Z,44.85
2023-02-11T19:06:49.171Z,40.35
2023-02-11T19:09:18.426Z,43.35
2023-02-11T19:11:53.763Z,54.53
2023-02-11T19:14:25.953Z,43.22
2023-02-11T19:16:55.774Z,45.70
2023-02-11T19:19:25.022Z,40.70
2023-02-11T19:21:52.184Z,45.55
2023-02-11T19:24:19.782Z,42.50
2023-02-11T19:26:48.589Z,39.58
2023-02-11T19:29:16.218Z,42.30
2023-02-11T19:31:43.872Z,53.20
2023-02-11T19:34:13.975Z,49.42
2023-02-11T19:36:41.164Z,49.70
2023-02-11T19:39:08.205Z,41.05
2023-02-11T19:41:35.132Z,43.78
2023-02-11T19:44:02.647Z,27.35
2023-02-11T19:48:59.248Z,46.80
2023-02-11T19:51:26.136Z,51.63
2023-02-11T19:53:53.794Z,36.55
2023-02-11T19:56:21.037Z,54.80
2023-02-11T19:58:48.070Z,46.45
2023-02-11T20:01:17.577Z,46.72
2023-02-11T20:03:44.594Z,46.55
2023-02-11T20:06:18.066Z,52.15
2023-02-11T20:08:44.951Z,48.97
2023-02-11T20:11:14.677Z,49.33
2023-02-11T20:13:42.019Z,52.17
2023-02-11T20:16:16.464Z,43.40
2023-02-11T20:18:44.247Z,47.03
2023-02-11T20:21:13.758Z,54.45
2023-02-11T20:23:40.714Z,55.78
2023-02-11T20:26:17.920Z,55.00
2023-02-11T20:28:45.828Z,48.75
2023-02-11T20:31:13.455Z,50.75
2023-02-11T20:33:41.381Z,58.60
2023-02-11T20:36:16.954Z,46.60
2023-02-11T20:38:44.254Z,46.35
2023-02-11T20:41:30.800Z,49.20
2023-02-11T20:44:00.088Z,44.15
2023-02-11T20:46:29.699Z,48.60
2023-02-11T20:48:57.410Z,47.92
2023-02-11T20:51:32.515Z,44.47
2023-02-11T20:53:59.908Z,51.75
2023-02-11T20:56:32.094Z,48.25
2023-02-11T20:59:00.384Z,48.90
2023-02-11T21:01:33.177Z,57.22
2023-02-11T21:04:08.409Z,48.88
2023-02-11T21:06:40.797Z,50.92
2023-02-11T21:09:10.484Z,43.20
2023-02-11T21:11:37.532Z,50.58
2023-02-11T21:14:04.497Z,53.22
2023-02-11T21:16:32.290Z,55.10
2023-02-11T21:19:00.517Z,51.85
2023-02-11T21:21:27.387Z,53.67
2023-02-11T21:23:55.933Z,45.67
2023-02-11T21:26:23.195Z,56.80
2023-02-11T21:28:51.811Z,52.67
2023-02-11T21:31:22.156Z,50.30
2023-02-11T21:33:50.005Z,54.55
2023-02-11T21:36:16.954Z,49.45
2023-02-11T21:38:43.734Z,37.65
2023-02-11T21:41:12.089Z,38.33
2023-02-11T21:43:39.022Z,61.55
2023-02-11T21:46:11.227Z,51.50
2023-02-11T21:48:38.343Z,58.42
2023-02-11T21:51:07.577Z,53.42
2023-02-11T21:53:35.051Z,42.13
2023-02-11T21:58:33.487Z,53.38
2023-02-11T22:03:27.561Z,57.30
2023-02-11T22:05:54.785Z,52.75
2023-02-11T22:08:21.712Z,49.25
2023-02-11T22:10:48.588Z,44.28
2023-02-11T22:13:15.384Z,45.42
2023-02-11T22:15:42.178Z,46.88
2023-02-11T22:18:09.053Z,57.85
2023-02-11T22:20:35.876Z,38.10
2023-02-11T22:23:02.689Z,56.65
2023-02-11T22:25:29.601Z,41.55
2023-02-11T22:27:56.594Z,38.72
2023-02-11T22:30:23.468Z,42.20
2023-02-11T22:32:50.233Z,41.20
2023-02-11T22:35:17.169Z,41.53
2023-02-11T22:37:43.933Z,50.50
2023-02-11T22:40:11.244Z,29.38
2023-02-11T22:42:38.007Z,48.42
2023-02-11T22:45:05.734Z,46.40
2023-02-11T22:47:32.570Z,57.72
2023-02-11T22:49:59.331Z,45.42
2023-02-11T22:52:26.219Z,47.67
2023-02-11T22:54:54.933Z,49.42
2023-02-11T22:57:21.773Z,48.05
2023-02-11T22:59:49.304Z,37.28
2023-02-11T23:04:42.996Z,46.22
2023-02-11T23:07:09.932Z,35.85
2023-02-11T23:09:36.788Z,44.10
2023-02-11T23:12:03.999Z,37.25
2023-02-11T23:14:30.840Z,46.80
2023-02-11T23:16:57.642Z,35.47
2023-02-11T23:19:24.492Z,45.45
2023-02-11T23:21:52.664Z,44.00
2023-02-11T23:24:19.533Z,40.10
2023-02-11T23:26:46.472Z,34.78
2023-02-11T23:29:13.733Z,33.88
2023-02-11T23:31:45.148Z,43.63
2023-02-11T23:34:17.016Z,38.35
2023-02-11T23:36:44.364Z,37.88
2023-02-11T23:39:14.731Z,39.88
2023-02-11T23:41:41.688Z,43.75
2023-02-11T23:44:09.756Z,43.35
2023-02-11T23:46:36.572Z,38.17
2023-02-11T23:49:04.162Z,36.72
2023-02-11T23:53:57.708Z,33.67
2023-02-11T23:56:27.140Z,41.40
2023-02-11T23:58:56.424Z,29.23
